LDSB/BWK METAR and TAF weather

Enter ICAO airport designator
Station Type Date Time Source
LDSB METAR 2022/05/21 16:00 UTC NOAA

LDSB 211600Z VRB05KT CAVOK 25/10 Q1017


Station Type Date Time Source
LDSB Decoded METAR 2022/05/21 16:00 UTC NOAA

Brac, Croatia (LDSB) 43-17-09N 016-40-47E
May 21, 2022 - 12:00 PM EDT / 2022.05.21 1600 UTC
Wind: Variable at 6 MPH (5 KT):0
Visibility: greater than 7 mile(s):0
Temperature: 77 F (25 C)
Dew Point: 50 F (10 C)
Relative Humidity: 38%
Pressure (altimeter): 30.03 in. Hg (1017 hPa)
ob: LDSB 211600Z VRB05KT CAVOK 25/10 Q1017
cycle: 16

Station Type Date Time Source
LDSB TAF 2022/05/21 16:48 UTC NOAA

TAF
AMD TAF
AMD LDSB 211646Z 2116/2212 CNL

Example: see airport list